< < Back
Terminal Aerodrome Forecast


Current Version              Previous Versions:   1  2  3  4  5  6  7  8  9  

Terminal Aerodrome Forecast

338
FTUS42 KGSP 202056 AAA
TAFCLT
TAF AMD
KCLT 202056Z 2021/2118 08004KT P6SM OVC024
     FM210700 00000KT 4SM BR OVC015
     FM211100 05003KT 6SM BR OVC024=

Latest METAR

990
SAUS70 KWBC 202300 RRD
MTRCLT
METAR KCLT 202252Z 09005KT 10SM OVC022 07/01 A3023 RMK AO2 SLP236
T00720006


USA.gov is the U.S. government's official web portal to all federal, state and local government web resources and services.